Time;durP1;ratioP1;P1;durP2;ratioP2;P2;SDS_P1;SDS_P2;PMS_P1;PMS_P2;Temp;Humidity;BMP_temperature;BMP_pressure;BME280_temperature;BME280_humidity;BME280_pressure;Samples;Min_cycle;Max_cycle;Signal;HPM_P1;HPM_P2
2021/12/15 00:00:59;;;;;;;6.15;5.55;;;;;;;10.37;53.38;100511.37;1746677;80;21050;-68
2021/12/15 00:03:26;;;;;;;6.53;5.15;;;;;;;10.36;53.39;100499.92;1828990;77;21015;-67
2021/12/15 00:05:53;;;;;;;5.00;4.50;;;;;;;10.35;53.37;100502.25;1834206;77;21010;-66
2021/12/15 00:08:20;;;;;;;5.60;4.83;;;;;;;10.36;53.37;100500.42;1826972;77;21505;-67
2021/12/15 00:10:48;;;;;;;6.20;5.53;;;;;;;10.37;53.37;100506.06;1817014;77;21347;-66
2021/12/15 00:13:16;;;;;;;6.42;5.37;;;;;;;10.36;53.37;100508.39;1818376;77;21022;-67
2021/12/15 00:15:44;;;;;;;5.40;4.67;;;;;;;10.36;53.39;100510.55;1838350;77;21006;-67
2021/12/15 00:18:11;;;;;;;5.33;4.83;;;;;;;10.35;53.38;100512.88;1825121;77;21088;-68
2021/12/15 00:20:39;;;;;;;6.45;5.42;;;;;;;10.36;53.38;100513.20;1830594;77;21045;-67
2021/12/15 00:23:05;;;;;;;5.72;4.97;;;;;;;10.36;53.35;100513.70;1829304;77;23261;-68
2021/12/15 00:25:36;;;;;;;6.05;5.37;;;;;;;10.36;53.35;100513.70;1823311;77;21072;-67
2021/12/15 00:28:04;;;;;;;5.45;4.83;;;;;;;10.36;53.34;100513.20;1833190;77;21502;-66
2021/12/15 00:30:30;;;;;;;5.58;4.90;;;;;;;10.36;53.35;100513.70;1811463;77;21033;-66
2021/12/15 00:32:57;;;;;;;4.78;4.03;;;;;;;10.36;53.37;100509.72;1831644;76;20983;-66
2021/12/15 00:35:24;;;;;;;7.35;5.60;;;;;;;10.36;53.35;100509.72;1814716;77;21305;-66
2021/12/15 00:37:51;;;;;;;5.17;4.58;;;;;;;10.36;53.34;100514.53;1811528;77;21013;-66
2021/12/15 00:40:19;;;;;;;5.65;5.03;;;;;;;10.35;53.35;100498.27;1824863;77;20999;-68
2021/12/15 00:42:46;;;;;;;5.30;4.62;;;;;;;10.36;53.34;100501.75;1833442;77;21026;-66
2021/12/15 00:45:14;;;;;;;4.85;4.35;;;;;;;10.36;53.33;100495.94;1830893;77;21037;-66
2021/12/15 00:47:43;;;;;;;6.28;4.53;;;;;;;10.35;53.34;100494.75;1823465;77;21313;-68
2021/12/15 00:50:11;;;;;;;4.83;4.08;;;;;;;10.35;53.34;100500.06;1826093;77;21443;-66
2021/12/15 00:52:39;;;;;;;5.45;4.70;;;;;;;10.35;53.35;100495.61;1813267;77;21486;-66
2021/12/15 00:55:08;;;;;;;5.22;4.70;;;;;;;10.35;53.33;100495.61;1814805;77;21517;-67
2021/12/15 00:57:35;;;;;;;5.03;4.53;;;;;;;10.35;53.34;100506.23;1813491;77;21069;-66
2021/12/15 01:00:10;;;;;;;4.90;4.37;;;;;;;10.35;53.34;100508.03;1817766;77;21046;-67
2021/12/15 01:02:36;;;;;;;4.35;3.95;;;;;;;10.35;53.33;100506.23;1838630;77;21029;-66
2021/12/15 01:05:05;;;;;;;5.00;4.42;;;;;;;10.34;53.35;100503.22;1821752;77;20997;-66
2021/12/15 01:07:32;;;;;;;6.05;4.75;;;;;;;10.34;53.33;100500.56;1828379;77;20978;-68
2021/12/15 01:09:59;;;;;;;5.00;4.35;;;;;;;10.34;53.32;100493.92;1827261;77;21056;-67
2021/12/15 01:12:51;;;;;;;4.15;3.75;;;;;;;10.35;53.32;100492.95;1833283;76;21092;-67
2021/12/15 01:20:35;;;;;;;4.90;4.28;;;;;;;10.33;53.32;100482.94;1823570;76;21072;-66
2021/12/15 01:23:07;;;;;;;4.90;4.30;;;;;;;10.33;53.32;100483.44;1821363;77;21386;-67
2021/12/15 01:25:44;;;;;;;5.12;4.03;;;;;;;10.31;53.35;100483.58;1819610;77;21765;-68
2021/12/15 01:28:11;;;;;;;4.55;3.70;;;;;;;10.31;53.35;100478.27;1830478;77;22457;-67
2021/12/15 01:30:41;;;;;;;4.12;3.72;;;;;;;10.31;53.37;100478.77;1826399;76;21442;-68
2021/12/15 01:33:10;;;;;;;4.15;3.72;;;;;;;10.30;53.37;100483.26;1825316;77;20963;-66
2021/12/15 01:35:42;;;;;;;4.00;3.55;;;;;;;10.31;53.37;100482.76;1828201;77;21033;-67
2021/12/15 01:38:09;;;;;;;4.10;3.70;;;;;;;10.30;53.37;100479.27;1817756;76;21090;-68
2021/12/15 01:40:38;;;;;;;5.40;4.40;;;;;;;10.29;53.38;100476.23;1822187;77;21017;-67
2021/12/15 01:43:33;;;;;;;4.50;3.70;;;;;;;10.29;53.38;100473.58;1824144;77;21073;-69
2021/12/15 01:48:45;;;;;;;4.33;3.92;;;;;;;10.29;53.38;100464.28;1842470;77;21030;-68
2021/12/15 01:51:12;;;;;;;4.08;3.67;;;;;;;10.28;53.41;100459.14;1817519;77;21131;-68
2021/12/15 01:53:38;;;;;;;4.50;3.40;;;;;;;10.27;53.39;100458.28;1826219;77;21647;-66
2021/12/15 01:56:05;;;;;;;4.42;4.03;;;;;;;10.28;53.43;100471.91;1838607;77;21092;-66
2021/12/15 01:58:32;;;;;;;4.35;3.95;;;;;;;10.29;53.40;100478.05;1786000;79;21068;-67
2021/12/15 02:01:02;;;;;;;5.40;4.17;;;;;;;10.28;53.40;100474.58;1834198;77;21192;-67
2021/12/15 02:03:28;;;;;;;4.35;3.65;;;;;;;10.28;53.38;100478.55;1774932;79;21119;-67
2021/12/15 02:05:56;;;;;;;5.35;4.35;;;;;;;10.29;53.39;100482.04;1769715;79;21148;-66
2021/12/15 02:08:23;;;;;;;4.75;4.10;;;;;;;10.29;53.36;100479.38;1757464;80;21037;-67
2021/12/15 02:10:51;;;;;;;4.87;4.12;;;;;;;10.29;53.37;100476.73;1796340;78;21021;-67
2021/12/15 02:13:18;;;;;;;4.35;3.95;;;;;;;10.29;53.35;100476.73;1803665;77;21036;-67
2021/12/15 02:15:51;;;;;;;5.42;4.08;;;;;;;10.27;53.36;100475.55;1800571;78;21066;-66
2021/12/15 02:18:23;;;;;;;4.07;3.67;;;;;;;10.28;53.33;100481.21;1804065;78;21049;-68
2021/12/15 02:20:58;;;;;;;4.08;3.67;;;;;;;10.28;53.35;100475.90;1780498;78;21060;-67
2021/12/15 02:23:34;;;;;;;4.55;4.00;;;;;;;10.29;53.35;100480.71;1766165;79;21029;-68
2021/12/15 02:25:57;;;;;;;4.37;3.95;;;;;;;10.28;53.32;100469.77;1796302;77;21052;-67
2021/12/15 02:28:23;;;;;;;4.20;3.70;;;;;;;10.28;53.33;100472.42;1766026;80;21109;-67
2021/12/15 02:30:56;;;;;;;3.80;3.37;;;;;;;10.27;53.33;100462.27;1765677;80;20994;-66
2021/12/15 02:38:41;;;;;;;4.10;3.60;;;;;;;10.28;53.33;100469.77;1802952;77;21104;-66
2021/12/15 02:41:19;;;;;;;4.45;3.98;;;;;;;10.27;53.32;100465.42;1788322;78;21105;-66
2021/12/15 02:43:38;;;;;;;3.98;3.58;;;;;;;10.26;53.32;100457.95;1765032;80;21085;-66
2021/12/15 02:46:06;;;;;;;3.87;3.50;;;;;;;10.25;53.32;100456.27;1768213;80;21036;-67
2021/12/15 02:48:33;;;;;;;3.95;3.55;;;;;;;10.26;53.30;100462.41;1774229;79;21085;-67
2021/12/15 02:51:00;;;;;;;3.90;3.50;;;;;;;10.26;53.32;100473.89;1754695;80;21034;-67
2021/12/15 02:53:27;;;;;;;4.20;3.80;;;;;;;10.26;53.33;100473.89;1765798;80;21050;-68
2021/12/15 02:55:53;;;;;;;4.00;3.58;;;;;;;10.26;53.32;100478.34;1757902;80;21010;-67
2021/12/15 02:58:21;;;;;;;3.98;3.58;;;;;;;10.26;53.31;100481.00;1759400;79;20983;-70
2021/12/15 03:01:02;;;;;;;3.87;3.47;;;;;;;10.26;53.32;100480.53;1764320;79;21482;-67
2021/12/15 03:06:12;;;;;;;4.12;3.72;;;;;;;10.26;53.30;100483.18;1799560;78;22452;-67
2021/12/15 03:16:59;;;;;;;4.20;3.75;;;;;;;10.27;53.33;100480.86;1869465;75;28101;-67
2021/12/15 03:19:26;;;;;;;3.65;3.35;;;;;;;10.22;53.32;100487.95;1829018;77;21703;-66
2021/12/15 03:21:53;;;;;;;3.58;3.27;;;;;;;10.23;53.32;100489.60;1817559;78;21141;-68
2021/12/15 03:24:23;;;;;;;3.80;3.50;;;;;;;10.23;53.29;100485.62;1807280;78;21025;-67
2021/12/15 03:27:01;;;;;;;4.08;3.62;;;;;;;10.23;53.28;100490.10;1807987;78;21049;-68
2021/12/15 03:37:26;;;;;;;4.08;3.22;;;;;;;10.22;53.27;100498.56;1796280;78;20993;-67
2021/12/15 03:40:05;;;;;;;3.45;3.15;;;;;;;10.21;53.30;100495.55;1804965;77;20950;-67
2021/12/15 03:42:41;;;;;;;3.58;3.27;;;;;;;10.21;53.29;100494.23;1811796;78;21497;-66
2021/12/15 03:45:12;;;;;;;3.67;3.22;;;;;;;10.21;53.29;100498.71;1811235;77;21010;-67
2021/12/15 03:47:42;;;;;;;3.80;3.12;;;;;;;10.20;53.30;100495.23;1815411;78;21507;-67
2021/12/15 03:50:12;;;;;;;4.12;3.62;;;;;;;10.20;53.30;100498.38;1806652;77;21009;-67
2021/12/15 03:52:39;;;;;;;3.90;3.25;;;;;;;10.20;53.30;100501.04;1826313;78;21046;-67
2021/12/15 03:55:07;;;;;;;3.02;2.72;;;;;;;10.20;53.30;100503.69;1816692;78;21506;-67
2021/12/15 03:57:34;;;;;;;3.58;3.27;;;;;;;10.20;53.30;100506.34;1795993;78;21006;-66
2021/12/15 04:00:07;;;;;;;3.70;3.30;;;;;;;10.20;53.30;100511.66;1811019;77;22319;-68
2021/12/15 04:02:35;;;;;;;3.58;3.25;;;;;;;10.21;53.27;100517.30;1795893;78;20994;-68
2021/12/15 04:05:04;;;;;;;3.45;3.12;;;;;;;10.20;53.27;100515.14;1812264;78;21021;-68
2021/12/15 04:07:31;;;;;;;3.92;3.52;;;;;;;10.20;53.27;100511.66;1798876;78;21021;-67
2021/12/15 04:09:57;;;;;;;3.72;3.37;;;;;;;10.21;53.26;100507.50;1799986;77;21018;-67
2021/12/15 04:12:25;;;;;;;4.12;3.67;;;;;;;10.20;53.23;100507.17;1799772;78;21026;-67
2021/12/15 04:15:08;;;;;;;4.05;3.17;;;;;;;10.20;53.24;100503.69;1805576;77;21132;-67
2021/12/15 04:17:30;;;;;;;3.65;3.17;;;;;;;10.21;53.23;100511.48;1782330;79;21026;-67
2021/12/15 04:20:01;;;;;;;3.52;3.15;;;;;;;10.20;53.22;100510.33;1800958;77;20983;-67
2021/12/15 04:22:28;;;;;;;3.33;2.85;;;;;;;10.20;53.22;100516.97;1811099;78;21076;-67
2021/12/15 04:24:55;;;;;;;3.95;3.25;;;;;;;10.19;53.24;100514.78;1800837;78;21127;-69
2021/12/15 04:27:22;;;;;;;3.65;3.35;;;;;;;10.19;53.21;100525.41;1776038;79;21072;-68
2021/12/15 04:29:50;;;;;;;3.85;3.33;;;;;;;10.20;53.22;100520.95;1800212;79;21021;-68
2021/12/15 04:32:31;;;;;;;3.27;2.98;;;;;;;10.20;53.22;100523.61;1783626;79;21037;-67
2021/12/15 04:34:58;;;;;;;3.77;3.35;;;;;;;10.20;53.21;100522.28;1802883;78;20974;-69
2021/12/15 04:37:26;;;;;;;4.42;3.50;;;;;;;10.19;53.22;100524.08;1804057;78;21134;-68
2021/12/15 04:39:52;;;;;;;4.17;3.50;;;;;;;10.19;53.22;100523.25;1809999;78;21018;-67
2021/12/15 04:42:20;;;;;;;3.40;3.10;;;;;;;10.18;53.20;100533.05;1798403;79;21030;-68
2021/12/15 04:44:47;;;;;;;3.70;3.30;;;;;;;10.19;53.21;100532.55;1789047;78;21052;-66
2021/12/15 04:47:14;;;;;;;3.75;3.40;;;;;;;10.20;53.20;100536.88;1804310;79;21003;-68
2021/12/15 04:49:44;;;;;;;4.67;4.03;;;;;;;10.19;53.20;100540.51;1800082;78;21096;-67
2021/12/15 04:52:12;;;;;;;3.98;3.58;;;;;;;10.19;53.21;100541.84;1794167;79;21608;-67
2021/12/15 04:54:40;;;;;;;4.10;3.37;;;;;;;10.20;53.18;100543.52;1797983;78;20970;-67
2021/12/15 04:57:06;;;;;;;4.87;4.03;;;;;;;10.19;53.18;100549.80;1738975;81;21088;-68
2021/12/15 04:59:33;;;;;;;4.45;3.70;;;;;;;10.18;53.16;100548.14;1762750;80;21013;-69
2021/12/15 05:02:00;;;;;;;5.20;3.95;;;;;;;10.18;53.17;100549.47;1748353;79;21243;-67
2021/12/15 05:04:27;;;;;;;4.70;3.85;;;;;;;10.19;53.15;100552.45;1762026;79;21070;-68
2021/12/15 05:06:54;;;;;;;4.30;3.90;;;;;;;10.18;53.16;100548.14;1747462;79;20995;-68
2021/12/15 05:09:21;;;;;;;4.67;3.60;;;;;;;10.19;53.15;100551.95;1737423;79;21066;-67
2021/12/15 05:11:49;;;;;;;4.12;3.72;;;;;;;10.18;53.14;100544.99;1748950;79;21014;-68
2021/12/15 05:14:17;;;;;;;4.65;4.12;;;;;;;10.18;53.14;100546.81;1740631;81;21142;-68
2021/12/15 05:16:44;;;;;;;4.42;3.85;;;;;;;10.17;53.12;100547.28;1765207;79;21065;-68
2021/12/15 05:19:11;;;;;;;4.70;3.47;;;;;;;10.17;53.12;100541.98;1753996;79;21032;-68
2021/12/15 05:21:38;;;;;;;4.58;3.83;;;;;;;10.18;53.11;100546.81;1750020;81;21058;-68
2021/12/15 05:24:21;;;;;;;4.17;3.50;;;;;;;10.17;53.12;100544.63;1744013;81;21278;-68
2021/12/15 05:26:36;;;;;;;5.83;4.17;;;;;;;10.17;53.11;100543.80;1729846;81;21132;-69
2021/12/15 05:29:03;;;;;;;4.35;3.90;;;;;;;10.17;53.11;100545.13;1783404;79;21116;-69
2021/12/15 05:31:30;;;;;;;4.50;4.08;;;;;;;10.17;53.11;100543.80;1758414;79;21009;-68
2021/12/15 05:33:56;;;;;;;4.05;3.47;;;;;;;10.16;53.11;100544.30;1769024;80;21517;-68
2021/12/15 05:36:23;;;;;;;3.85;3.45;;;;;;;10.18;53.11;100553.45;1768597;79;21017;-68
2021/12/15 05:38:50;;;;;;;5.37;4.17;;;;;;;10.16;53.09;100556.25;1738738;81;21145;-66
2021/12/15 05:41:16;;;;;;;4.20;3.80;;;;;;;10.16;53.10;100550.08;1742058;81;21604;-67
2021/12/15 05:43:43;;;;;;;4.37;3.60;;;;;;;10.15;53.09;100557.72;1811382;78;21076;-67
2021/12/15 05:46:09;;;;;;;4.70;3.75;;;;;;;10.15;53.09;100561.20;1809207;77;21470;-68
2021/12/15 05:48:36;;;;;;;4.78;3.95;;;;;;;10.16;53.09;100566.88;1820978;77;21036;-68
2021/12/15 05:51:02;;;;;;;4.83;4.08;;;;;;;10.16;53.08;100568.20;1821167;78;21086;-67
2021/12/15 05:53:29;;;;;;;4.45;3.75;;;;;;;10.16;53.08;100568.66;1792398;78;21038;-67
2021/12/15 05:55:56;;;;;;;4.37;3.98;;;;;;;10.16;53.05;100573.98;1803154;78;21024;-68
2021/12/15 05:58:22;;;;;;;4.35;3.70;;;;;;;10.16;53.08;100573.98;1816614;77;21045;-67
2021/12/15 06:00:49;;;;;;;4.50;3.55;;;;;;;10.16;53.08;100573.98;1811615;78;21062;-67
2021/12/15 06:03:16;;;;;;;4.22;3.80;;;;;;;10.15;53.08;100586.42;1793567;78;22033;-70
2021/12/15 06:05:43;;;;;;;4.65;3.85;;;;;;;10.15;53.05;100583.77;1806027;78;21521;-69
2021/12/15 06:08:10;;;;;;;4.30;3.80;;;;;;;10.15;53.06;100595.72;1761222;79;21033;-67
2021/12/15 06:10:39;;;;;;;4.90;4.25;;;;;;;10.15;53.06;100595.72;1748048;81;21047;-70
2021/12/15 06:13:08;;;;;;;4.60;4.00;;;;;;;10.16;53.08;100595.22;1812433;78;21021;-68
2021/12/15 06:15:36;;;;;;;5.00;4.22;;;;;;;10.15;53.05;100593.06;1804170;78;21009;-71
2021/12/15 06:18:11;;;;;;;4.40;3.70;;;;;;;10.15;53.09;100596.22;1794189;78;21002;-69
2021/12/15 06:20:38;;;;;;;4.58;3.80;;;;;;;10.14;53.05;100602.03;1804776;79;21474;-68
2021/12/15 06:23:10;;;;;;;4.10;3.70;;;;;;;10.14;53.05;100595.39;1786436;78;21502;-68
2021/12/15 06:25:35;;;;;;;4.70;3.80;;;;;;;10.14;53.04;100599.84;1793872;79;21037;-68
2021/12/15 06:28:01;;;;;;;4.45;3.65;;;;;;;10.14;53.05;100599.84;1800724;79;21218;-68
2021/12/15 06:30:28;;;;;;;4.08;3.67;;;;;;;10.13;53.06;100601.66;1803833;79;21082;-68
2021/12/15 06:32:54;;;;;;;3.33;2.92;;;;;;;10.14;53.04;100606.01;1814073;78;21722;-68
2021/12/15 06:35:21;;;;;;;4.40;4.00;;;;;;;10.14;53.04;100607.80;1787714;79;21560;-66
2021/12/15 06:37:48;;;;;;;3.85;3.20;;;;;;;10.14;53.05;100611.78;1786674;79;21028;-66
2021/12/15 06:40:14;;;;;;;4.35;3.72;;;;;;;10.14;53.03;100611.78;1804281;78;21076;-69
2021/12/15 06:42:42;;;;;;;3.95;3.52;;;;;;;10.14;53.03;100613.98;1796956;77;20962;-68
2021/12/15 06:45:16;;;;;;;3.70;3.05;;;;;;;10.13;53.00;100612.28;1794180;79;21379;-67
2021/12/15 06:58:42;;;;;;;4.62;3.67;;;;;;;10.12;53.05;100618.59;1807900;79;21100;-71
2021/12/15 07:01:10;;;;;;;3.90;3.33;;;;;;;10.12;53.06;100621.72;1802147;79;21061;-72
2021/12/15 07:03:37;;;;;;;3.67;3.35;;;;;;;10.11;53.06;100628.85;1809859;78;21065;-70
2021/12/15 07:06:04;;;;;;;4.47;3.67;;;;;;;10.11;53.05;100628.85;1792516;78;21756;-70
2021/12/15 07:08:31;;;;;;;4.37;3.45;;;;;;;10.11;53.06;100624.04;1814579;79;21030;-69
2021/12/15 07:11:00;;;;;;;4.78;3.70;;;;;;;10.12;53.07;100629.68;1812327;78;21021;-69
2021/12/15 07:13:26;;;;;;;3.42;3.12;;;;;;;10.12;53.06;100623.91;1810547;78;20998;-68
2021/12/15 07:16:00;;;;;;;3.85;3.30;;;;;;;10.13;53.05;100624.73;1814153;78;20998;-67
2021/12/15 07:18:27;;;;;;;4.33;3.30;;;;;;;10.13;53.04;100623.41;1812394;77;21122;-70
2021/12/15 07:20:54;;;;;;;4.10;3.33;;;;;;;10.14;53.03;100627.25;1805744;79;21644;-68
2021/12/15 07:23:22;;;;;;;3.80;3.40;;;;;;;10.15;53.01;100630.23;1813182;79;21288;-68
2021/12/15 07:25:51;;;;;;;4.03;3.08;;;;;;;10.15;52.99;100617.45;1807794;78;21065;-68
2021/12/15 07:28:19;;;;;;;3.58;2.98;;;;;;;10.15;52.97;100622.27;1800954;78;21065;-68
2021/12/15 07:30:47;;;;;;;3.62;3.00;;;;;;;10.16;52.97;100622.63;1814320;79;21100;-69
2021/12/15 07:33:14;;;;;;;3.52;3.22;;;;;;;10.15;52.96;100626.25;1800999;78;21034;-69
2021/12/15 07:35:41;;;;;;;4.33;3.87;;;;;;;10.17;52.96;100627.44;1814289;79;21116;-69
2021/12/15 07:38:08;;;;;;;4.40;3.58;;;;;;;10.18;52.94;100640.58;1811377;78;21082;-69
2021/12/15 07:40:35;;;;;;;3.10;2.80;;;;;;;10.18;52.93;100641.08;1809685;78;21073;-68
2021/12/15 07:43:13;;;;;;;3.60;3.27;;;;;;;10.19;52.92;100646.22;1801211;79;21053;-68
2021/12/15 07:45:44;;;;;;;3.25;2.90;;;;;;;10.20;52.93;100647.08;1801730;79;21002;-67
2021/12/15 07:48:12;;;;;;;3.70;3.20;;;;;;;10.20;52.90;100652.39;1801110;78;21193;-69
2021/12/15 07:50:41;;;;;;;3.22;2.67;;;;;;;10.21;52.89;100659.36;1788663;77;21006;-70
2021/12/15 07:53:08;;;;;;;3.70;3.08;;;;;;;10.22;52.89;100664.54;1778129;79;21004;-68
2021/12/15 07:55:35;;;;;;;3.72;3.25;;;;;;;10.21;52.86;100654.05;1783853;78;21126;-67
2021/12/15 07:58:06;;;;;;;4.22;3.20;;;;;;;10.23;52.87;100670.18;1800278;78;21003;-69
2021/12/15 08:00:34;;;;;;;3.47;2.87;;;;;;;10.24;52.83;100671.87;1789802;79;21005;-69
2021/12/15 08:03:01;;;;;;;3.02;2.70;;;;;;;10.26;52.82;100678.84;1801813;79;21039;-70
2021/12/15 08:05:28;;;;;;;3.45;2.98;;;;;;;10.25;52.81;100672.70;1809885;78;21037;-70
2021/12/15 08:07:55;;;;;;;3.10;2.77;;;;;;;10.26;52.82;100667.75;1798533;78;21133;-73
2021/12/15 08:10:21;;;;;;;3.72;3.17;;;;;;;10.27;52.79;100669.41;1797973;79;21529;-70
2021/12/15 08:12:48;;;;;;;3.52;3.08;;;;;;;10.28;52.78;100670.27;1784900;78;21056;-69
2021/12/15 08:15:16;;;;;;;3.33;3.00;;;;;;;10.28;52.77;100671.09;1796975;79;21029;-71
2021/12/15 08:17:48;;;;;;;3.30;3.00;;;;;;;10.28;52.77;100671.09;1806686;77;21013;-70
2021/12/15 08:20:13;;;;;;;3.80;3.00;;;;;;;10.29;52.76;100679.39;1816026;78;21054;-70
2021/12/15 08:22:40;;;;;;;3.08;2.70;;;;;;;10.29;52.76;100679.39;1814105;78;21021;-70
2021/12/15 08:25:08;;;;;;;3.20;2.83;;;;;;;10.29;52.72;100682.05;1805410;77;21064;-68
2021/12/15 08:27:35;;;;;;;2.92;2.62;;;;;;;10.30;52.71;100682.44;1814208;78;21025;-68
2021/12/15 08:30:04;;;;;;;2.90;2.60;;;;;;;10.30;52.71;100681.58;1813384;78;21025;-68
2021/12/15 08:32:31;;;;;;;3.27;2.80;;;;;;;10.30;52.69;100678.92;1810635;78;21008;-69
2021/12/15 08:34:57;;;;;;;2.92;2.52;;;;;;;10.30;52.70;100682.44;1812137;78;21057;-69
2021/12/15 08:37:24;;;;;;;3.33;3.02;;;;;;;10.31;52.69;100689.41;1821250;77;21010;-68
2021/12/15 08:39:50;;;;;;;3.10;2.67;;;;;;;10.31;52.67;100688.09;1826083;77;21530;-71
2021/12/15 08:42:17;;;;;;;2.55;2.30;;;;;;;10.31;52.68;100686.76;1818157;77;21497;-67
2021/12/15 08:44:44;;;;;;;2.72;2.52;;;;;;;10.32;52.63;100674.34;1806239;78;21122;-67
2021/12/15 08:47:10;;;;;;;3.40;2.92;;;;;;;10.31;52.75;100680.12;1821076;78;21018;-67
2021/12/15 08:49:37;;;;;;;2.55;2.35;;;;;;;10.32;52.92;100681.81;1818009;78;21093;-67
2021/12/15 08:52:05;;;;;;;3.12;2.83;;;;;;;10.33;52.91;100682.14;1822834;78;20993;-67
2021/12/15 08:54:32;;;;;;;3.00;2.70;;;;;;;10.34;52.92;100676.36;1802738;78;21482;-68
2021/12/15 08:56:58;;;;;;;3.60;2.90;;;;;;;10.35;52.93;100675.36;1818856;78;21498;-65
2021/12/15 08:59:24;;;;;;;2.95;2.65;;;;;;;10.36;52.93;100683.69;1824926;78;21014;-67
2021/12/15 09:01:51;;;;;;;3.00;2.70;;;;;;;10.36;52.90;100681.86;1821637;78;21056;-67
2021/12/15 09:04:18;;;;;;;3.70;2.83;;;;;;;10.37;52.85;100680.03;1819345;77;21046;-67
2021/12/15 09:06:46;;;;;;;4.72;3.30;;;;;;;10.38;52.83;100670.60;1814573;78;21581;-68
2021/12/15 09:09:14;;;;;;;3.35;2.98;;;;;;;10.37;52.80;100664.96;1803100;78;21071;-67
2021/12/15 09:11:42;;;;;;;3.30;2.87;;;;;;;10.39;52.77;100664.33;1800136;78;21640;-66
2021/12/15 09:14:10;;;;;;;3.05;2.75;;;;;;;10.40;52.71;100660.67;1816963;78;21470;-66
2021/12/15 09:16:37;;;;;;;3.05;2.70;;;;;;;10.41;52.70;100651.73;1824305;78;21009;-67
2021/12/15 09:19:04;;;;;;;3.42;2.77;;;;;;;10.42;52.65;100644.09;1813565;78;21037;-68
2021/12/15 09:21:32;;;;;;;3.00;2.70;;;;;;;10.42;52.63;100649.91;1800921;79;21131;-66
2021/12/15 09:24:00;;;;;;;2.98;2.62;;;;;;;10.42;52.60;100648.08;1790521;77;21087;-67
2021/12/15 09:26:27;;;;;;;3.30;2.83;;;;;;;10.43;52.57;100652.42;1790543;77;21061;-67
2021/12/15 09:28:54;;;;;;;2.90;2.60;;;;;;;10.43;52.54;100645.78;1729226;82;21077;-68
2021/12/15 09:31:21;;;;;;;2.65;2.37;;;;;;;10.45;52.51;100654.08;1736162;82;21081;-67
2021/12/15 09:33:50;;;;;;;2.95;2.65;;;;;;;10.46;52.46;100651.78;1730090;82;21145;-68
2021/12/15 09:36:18;;;;;;;2.70;2.45;;;;;;;10.46;52.46;100653.11;1728141;82;21541;-69
2021/12/15 09:38:49;;;;;;;2.90;2.60;;;;;;;10.46;52.43;100647.80;1751719;81;21085;-68
2021/12/15 09:41:17;;;;;;;2.58;2.37;;;;;;;10.47;52.38;100650.78;1747913;80;21071;-66
2021/12/15 09:43:45;;;;;;;3.37;2.65;;;;;;;10.47;52.35;100649.45;1739455;81;21066;-68
2021/12/15 09:46:26;;;;;;;2.80;2.60;;;;;;;10.47;52.35;100646.80;1735606;80;21015;-67
2021/12/15 10:02:33;;;;;;;2.47;2.27;;;;;;;10.46;52.27;100651.78;1677694;84;21058;-68
2021/12/15 10:05:07;;;;;;;3.47;2.60;;;;;;;10.45;52.25;100643.45;1781136;79;21017;-68
2021/12/15 10:18:32;;;;;;;2.95;2.65;;;;;;;10.43;52.17;100635.16;1801935;78;20998;-68
2021/12/15 10:20:54;;;;;;;2.58;2.35;;;;;;;10.43;52.20;100629.84;1810058;78;21470;-69
2021/12/15 10:23:25;;;;;;;2.80;2.42;;;;;;;10.31;52.17;100613.72;1799469;78;21024;-68
2021/12/15 10:25:53;;;;;;;2.75;2.45;;;;;;;10.43;52.14;100627.69;1812259;77;21500;-67
2021/12/15 10:28:27;;;;;;;3.17;2.87;;;;;;;10.43;52.12;100624.53;1811396;78;21002;-68
2021/12/15 10:31:01;;;;;;;3.00;2.70;;;;;;;10.42;52.10;100622.84;1798360;78;21056;-66
2021/12/15 10:33:35;;;;;;;2.83;2.52;;;;;;;10.43;52.09;100623.20;1802766;78;20993;-69
2021/12/15 10:36:10;;;;;;;3.12;2.60;;;;;;;10.43;52.08;100626.36;1796897;78;21494;-70
2021/12/15 10:38:51;;;;;;;2.77;2.45;;;;;;;10.43;52.04;100628.52;1801832;78;22816;-69
2021/12/15 10:41:32;;;;;;;2.87;2.60;;;;;;;10.42;52.04;100620.19;1809388;78;21065;-68
2021/12/15 10:44:06;;;;;;;3.45;2.85;;;;;;;10.43;52.03;100623.70;1801704;78;21526;-69
2021/12/15 10:46:49;;;;;;;2.87;2.62;;;;;;;10.41;52.02;100622.98;1805652;78;21005;-69
2021/12/15 10:49:24;;;;;;;2.75;2.45;;;;;;;10.40;52.01;100616.84;1805086;78;20989;-67
2021/12/15 10:52:06;;;;;;;2.45;2.25;;;;;;;10.40;52.01;100619.50;1815818;77;21084;-67
2021/12/15 10:54:49;;;;;;;2.80;2.50;;;;;;;10.40;52.00;100624.81;1800114;77;21108;-71
2021/12/15 10:57:21;;;;;;;3.22;2.70;;;;;;;10.40;52.00;100617.34;1801174;78;21021;-68
2021/12/15 10:59:54;;;;;;;3.12;2.58;;;;;;;10.40;51.98;100617.34;1804471;78;21093;-68
2021/12/15 11:02:32;;;;;;;3.85;2.90;;;;;;;10.40;51.98;100618.67;1797883;78;21016;-67
2021/12/15 11:05:10;;;;;;;3.20;2.90;;;;;;;10.39;51.96;100616.52;1798159;78;21114;-68
2021/12/15 11:07:52;;;;;;;3.33;2.15;;;;;;;10.39;51.96;100621.83;1794002;78;21046;-68
2021/12/15 11:10:26;;;;;;;2.55;2.35;;;;;;;10.38;51.95;100625.45;1797346;78;21509;-68
2021/12/15 11:12:57;;;;;;;2.58;2.30;;;;;;;10.39;51.91;100624.95;1800564;78;21069;-67
2021/12/15 11:15:40;;;;;;;2.80;2.50;;;;;;;10.39;51.95;100622.30;1817171;77;21006;-68
2021/12/15 11:18:27;;;;;;;2.65;2.42;;;;;;;10.39;51.89;100621.83;1811351;78;21122;-68
2021/12/15 11:21:04;;;;;;;2.83;2.50;;;;;;;10.39;51.89;100620.97;1808531;77;21053;-67
2021/12/15 11:23:32;;;;;;;2.02;1.92;;;;;;;10.39;51.88;100616.98;1820617;78;21008;-68
2021/12/15 11:26:05;;;;;;;3.67;2.85;;;;;;;10.37;51.87;100623.80;1820885;78;21576;-68
2021/12/15 11:28:42;;;;;;;2.70;2.35;;;;;;;10.38;51.85;100619.30;1818303;78;21006;-69
2021/12/15 11:31:22;;;;;;;2.22;2.00;;;;;;;10.37;51.85;100618.48;1799274;78;23255;-67
2021/12/15 11:34:03;;;;;;;2.62;2.33;;;;;;;10.35;51.80;100618.26;1810792;78;21492;-68
2021/12/15 11:36:44;;;;;;;2.77;2.42;;;;;;;10.38;51.80;100620.64;1816205;77;21108;-69
2021/12/15 11:39:17;;;;;;;2.55;2.35;;;;;;;10.37;51.81;100617.62;1832691;77;21485;-68
2021/12/15 11:41:48;;;;;;;2.27;2.08;;;;;;;10.37;51.80;100621.14;1814130;78;21006;-69
2021/12/15 11:44:21;;;;;;;2.65;2.35;;;;;;;10.36;51.78;100624.76;1804209;78;21146;-67
2021/12/15 11:46:52;;;;;;;;;;;;;;;10.35;51.78;100620.45;1828172;77;21478;-66
2021/12/15 11:49:29;;;;;;;2.35;2.15;;;;;;;10.35;51.76;100621.77;1813006;78;20175;-67
2021/12/15 11:52:05;;;;;;;3.55;2.67;;;;;;;10.31;51.79;100617.70;1809682;78;21005;-67
2021/12/15 11:54:42;;;;;;;2.58;2.33;;;;;;;10.31;51.81;100620.36;1807637;78;21009;-70
2021/12/15 11:57:25;;;;;;;2.60;2.22;;;;;;;10.32;51.78;100615.91;1816571;77;21179;-68
2021/12/15 11:59:57;;;;;;;2.42;2.22;;;;;;;10.31;51.76;100619.03;1814928;78;21053;-68
2021/12/15 12:02:38;;;;;;;2.77;2.40;;;;;;;10.31;51.78;100613.72;1825372;78;21049;-69
2021/12/15 12:05:10;;;;;;;2.62;2.42;;;;;;;10.30;51.75;100612.06;1825874;78;20987;-67
2021/12/15 12:07:45;;;;;;;2.85;2.60;;;;;;;10.30;51.75;100610.73;1823949;78;21072;-69
2021/12/15 12:10:27;;;;;;;2.75;2.37;;;;;;;10.31;51.75;100619.53;1819100;78;21996;-66
2021/12/15 12:13:10;;;;;;;3.52;2.55;;;;;;;10.30;51.72;100616.05;1825627;78;21594;-68
2021/12/15 12:15:41;;;;;;;2.90;2.58;;;;;;;10.31;51.71;100615.55;1815915;78;21086;-69
2021/12/15 12:18:13;;;;;;;3.05;2.75;;;;;;;10.30;51.69;100618.70;1813328;78;21058;-68
2021/12/15 12:20:44;;;;;;;2.25;2.05;;;;;;;10.31;51.69;100612.89;1798965;78;20990;-67
2021/12/15 12:23:16;;;;;;;2.83;2.52;;;;;;;10.30;51.67;100620.03;1809433;79;21029;-67
2021/12/15 12:25:47;;;;;;;3.87;2.37;;;;;;;10.30;51.65;100616.52;1825920;77;20999;-68
2021/12/15 12:28:18;;;;;;;2.70;2.50;;;;;;;10.30;51.64;100623.16;1794316;78;21104;-69
2021/12/15 12:30:50;;;;;;;2.60;2.40;;;;;;;10.30;51.64;100620.03;1803587;78;21499;-68
2021/12/15 12:33:17;;;;;;;3.72;2.50;;;;;;;10.30;51.61;100617.38;1799632;77;21510;-68
2021/12/15 12:35:55;;;;;;;3.83;2.80;;;;;;;10.31;51.61;100623.52;1801849;78;21791;-67
2021/12/15 12:38:26;;;;;;;2.75;2.52;;;;;;;10.30;51.60;100617.38;1795188;79;20978;-68
2021/12/15 12:41:03;;;;;;;3.47;2.77;;;;;;;10.30;51.57;100618.70;1796384;79;21085;-67
2021/12/15 12:43:33;;;;;;;2.67;2.47;;;;;;;10.30;51.56;100620.50;1797638;78;21004;-67